sensor_id;sensor_type;location;lat;lon;timestamp;pressure;altitude;pressure_sealevel;temperature;humidity
53340;BME280;46212;50.258;19.062;2023-02-13T00:00:59;100485.66;;;2.13;98.94
53340;BME280;46212;50.258;19.062;2023-02-13T00:03:24;100486.28;;;2.07;99.27
53340;BME280;46212;50.258;19.062;2023-02-13T00:05:50;100488.28;;;2.26;99.63
53340;BME280;46212;50.258;19.062;2023-02-13T00:08:15;100472.81;;;2.30;99.00
53340;BME280;46212;50.258;19.062;2023-02-13T00:10:41;100492.56;;;2.42;98.67
53340;BME280;46212;50.258;19.062;2023-02-13T00:13:06;100476.50;;;2.37;98.77
53340;BME280;46212;50.258;19.062;2023-02-13T00:15:31;100472.34;;;2.43;98.90
53340;BME280;46212;50.258;19.062;2023-02-13T00:17:57;100482.69;;;2.53;98.67
53340;BME280;46212;50.258;19.062;2023-02-13T00:20:23;100484.84;;;2.63;97.85
53340;BME280;46212;50.258;19.062;2023-02-13T00:22:48;100478.50;;;2.40;97.99
53340;BME280;46212;50.258;19.062;2023-02-13T00:25:14;100468.75;;;2.39;98.17
53340;BME280;46212;50.258;19.062;2023-02-13T00:27:39;100475.66;;;2.52;98.41
53340;BME280;46212;50.258;19.062;2023-02-13T00:30:05;100489.22;;;2.49;98.43
53340;BME280;46212;50.258;19.062;2023-02-13T00:32:31;100487.41;;;2.37;98.86
53340;BME280;46212;50.258;19.062;2023-02-13T00:34:56;100481.31;;;2.44;98.91
53340;BME280;46212;50.258;19.062;2023-02-13T00:37:23;100492.72;;;2.49;98.53
53340;BME280;46212;50.258;19.062;2023-02-13T00:39:48;100478.69;;;2.32;99.15
53340;BME280;46212;50.258;19.062;2023-02-13T00:42:13;100484.41;;;2.27;99.58
53340;BME280;46212;50.258;19.062;2023-02-13T00:44:39;100471.06;;;2.22;99.99
53340;BME280;46212;50.258;19.062;2023-02-13T00:47:04;100481.81;;;2.49;99.74
53340;BME280;46212;50.258;19.062;2023-02-13T00:49:30;100475.19;;;2.66;99.14
53340;BME280;46212;50.258;19.062;2023-02-13T00:51:55;100475.75;;;2.56;98.95
53340;BME280;46212;50.258;19.062;2023-02-13T00:54:20;100480.75;;;2.54;98.75
53340;BME280;46212;50.258;19.062;2023-02-13T00:56:46;100474.22;;;2.58;99.04
53340;BME280;46212;50.258;19.062;2023-02-13T00:59:11;100476.13;;;2.39;99.23
53340;BME280;46212;50.258;19.062;2023-02-13T01:01:37;100472.50;;;2.50;99.32
53340;BME280;46212;50.258;19.062;2023-02-13T01:04:02;100477.09;;;2.46;99.19
53340;BME280;46212;50.258;19.062;2023-02-13T01:06:27;100464.34;;;2.35;99.66
53340;BME280;46212;50.258;19.062;2023-02-13T01:08:53;100472.44;;;2.47;100.00
53340;BME280;46212;50.258;19.062;2023-02-13T01:11:18;100473.09;;;2.59;99.68
53340;BME280;46212;50.258;19.062;2023-02-13T01:13:44;100452.50;;;2.81;98.76
53340;BME280;46212;50.258;19.062;2023-02-13T01:16:10;100469.91;;;2.57;98.93
53340;BME280;46212;50.258;19.062;2023-02-13T01:18:35;100454.25;;;2.54;99.17
53340;BME280;46212;50.258;19.062;2023-02-13T01:21:05;100454.34;;;2.58;98.93
53340;BME280;46212;50.258;19.062;2023-02-13T01:23:33;100453.56;;;2.57;99.41
53340;BME280;46212;50.258;19.062;2023-02-13T01:25:59;100460.50;;;2.55;99.56
53340;BME280;46212;50.258;19.062;2023-02-13T01:28:25;100452.34;;;2.55;100.00
53340;BME280;46212;50.258;19.062;2023-02-13T01:30:57;100448.31;;;2.49;100.00
53340;BME280;46212;50.258;19.062;2023-02-13T01:33:24;100446.22;;;2.42;100.00
53340;BME280;46212;50.258;19.062;2023-02-13T01:35:50;100442.63;;;2.38;100.00
53340;BME280;46212;50.258;19.062;2023-02-13T01:38:16;100445.25;;;2.50;100.00
53340;BME280;46212;50.258;19.062;2023-02-13T01:40:50;100428.59;;;2.55;100.00
53340;BME280;46212;50.258;19.062;2023-02-13T01:43:16;100419.97;;;2.34;100.00
53340;BME280;46212;50.258;19.062;2023-02-13T01:45:44;100443.88;;;2.60;100.00
53340;BME280;46212;50.258;19.062;2023-02-13T01:48:18;100444.00;;;2.67;100.00
53340;BME280;46212;50.258;19.062;2023-02-13T01:56:02;100424.19;;;2.51;100.00
53340;BME280;46212;50.258;19.062;2023-02-13T01:58:32;100424.84;;;2.83;100.00
53340;BME280;46212;50.258;19.062;2023-02-13T02:01:00;100428.22;;;2.76;99.96
53340;BME280;46212;50.258;19.062;2023-02-13T02:03:28;100438.28;;;2.72;100.00
53340;BME280;46212;50.258;19.062;2023-02-13T02:05:55;100423.94;;;2.75;100.00
53340;BME280;46212;50.258;19.062;2023-02-13T02:08:23;100420.69;;;2.69;100.00
53340;BME280;46212;50.258;19.062;2023-02-13T02:10:49;100432.59;;;3.00;100.00
53340;BME280;46212;50.258;19.062;2023-02-13T02:13:19;100407.72;;;2.82;100.00
53340;BME280;46212;50.258;19.062;2023-02-13T02:15:46;100422.84;;;2.60;100.00
53340;BME280;46212;50.258;19.062;2023-02-13T02:18:20;100428.22;;;2.57;100.00
53340;BME280;46212;50.258;19.062;2023-02-13T02:24:11;100420.69;;;2.50;100.00
53340;BME280;46212;50.258;19.062;2023-02-13T02:32:55;100426.00;;;2.82;100.00
53340;BME280;46212;50.258;19.062;2023-02-13T02:41:19;100420.81;;;2.57;100.00
53340;BME280;46212;50.258;19.062;2023-02-13T02:46:39;100411.47;;;2.39;100.00
53340;BME280;46212;50.258;19.062;2023-02-13T02:49:28;100424.13;;;2.47;100.00
53340;BME280;46212;50.258;19.062;2023-02-13T02:52:24;100425.13;;;2.39;100.00
53340;BME280;46212;50.258;19.062;2023-02-13T02:54:56;100422.75;;;2.57;100.00
53340;BME280;46212;50.258;19.062;2023-02-13T02:57:33;100428.50;;;2.52;100.00
53340;BME280;46212;50.258;19.062;2023-02-13T03:00:22;100419.84;;;2.65;100.00
53340;BME280;46212;50.258;19.062;2023-02-13T03:03:16;100408.53;;;2.48;100.00
53340;BME280;46212;50.258;19.062;2023-02-13T03:06:03;100408.63;;;2.51;100.00
53340;BME280;46212;50.258;19.062;2023-02-13T03:08:35;100412.16;;;2.71;100.00
53340;BME280;46212;50.258;19.062;2023-02-13T03:11:20;100418.03;;;2.54;100.00
53340;BME280;46212;50.258;19.062;2023-02-13T03:14:06;100422.09;;;2.44;100.00
53340;BME280;46212;50.258;19.062;2023-02-13T03:16:33;100416.81;;;2.71;100.00
53340;BME280;46212;50.258;19.062;2023-02-13T03:22:30;100415.91;;;2.63;100.00
53340;BME280;46212;50.258;19.062;2023-02-13T03:25:20;100429.16;;;2.64;100.00
53340;BME280;46212;50.258;19.062;2023-02-13T03:28:22;100426.13;;;2.69;100.00
53340;BME280;46212;50.258;19.062;2023-02-13T03:41:58;100406.53;;;2.45;100.00
53340;BME280;46212;50.258;19.062;2023-02-13T03:44:46;100419.34;;;2.60;100.00
53340;BME280;46212;50.258;19.062;2023-02-13T03:47:33;100423.94;;;2.56;100.00
53340;BME280;46212;50.258;19.062;2023-02-13T03:49:59;100416.16;;;2.58;100.00
53340;BME280;46212;50.258;19.062;2023-02-13T03:52:32;100416.09;;;2.74;100.00
53340;BME280;46212;50.258;19.062;2023-02-13T03:55:05;100408.84;;;2.81;100.00
53340;BME280;46212;50.258;19.062;2023-02-13T03:57:54;100426.13;;;2.89;100.00
53340;BME280;46212;50.258;19.062;2023-02-13T04:00:43;100420.91;;;2.80;100.00
53340;BME280;46212;50.258;19.062;2023-02-13T04:03:23;100416.53;;;2.76;100.00
53340;BME280;46212;50.258;19.062;2023-02-13T04:05:56;100423.06;;;2.71;100.00
53340;BME280;46212;50.258;19.062;2023-02-13T04:08:22;100419.03;;;2.65;100.00
53340;BME280;46212;50.258;19.062;2023-02-13T04:10:52;100423.41;;;2.89;100.00
53340;BME280;46212;50.258;19.062;2023-02-13T04:13:37;100426.72;;;2.59;100.00
53340;BME280;46212;50.258;19.062;2023-02-13T04:16:15;100424.56;;;2.88;100.00
53340;BME280;46212;50.258;19.062;2023-02-13T04:18:42;100423.34;;;2.85;100.00
53340;BME280;46212;50.258;19.062;2023-02-13T04:21:08;100419.69;;;2.78;100.00
53340;BME280;46212;50.258;19.062;2023-02-13T04:23:34;100407.03;;;2.89;100.00
53340;BME280;46212;50.258;19.062;2023-02-13T04:26:02;100420.41;;;2.75;100.00
53340;BME280;46212;50.258;19.062;2023-02-13T04:28:29;100422.13;;;2.83;100.00
53340;BME280;46212;50.258;19.062;2023-02-13T04:30:55;100418.41;;;2.72;100.00
53340;BME280;46212;50.258;19.062;2023-02-13T04:33:21;100414.72;;;2.45;100.00
53340;BME280;46212;50.258;19.062;2023-02-13T04:35:47;100412.38;;;2.62;100.00
53340;BME280;46212;50.258;19.062;2023-02-13T04:38:12;100421.28;;;2.59;100.00
53340;BME280;46212;50.258;19.062;2023-02-13T04:40:38;100415.75;;;2.56;100.00
53340;BME280;46212;50.258;19.062;2023-02-13T04:43:03;100404.25;;;2.66;100.00
53340;BME280;46212;50.258;19.062;2023-02-13T04:45:29;100398.81;;;2.66;100.00
53340;BME280;46212;50.258;19.062;2023-02-13T04:47:55;100421.69;;;2.61;100.00
53340;BME280;46212;50.258;19.062;2023-02-13T04:50:22;100418.53;;;2.40;100.00
53340;BME280;46212;50.258;19.062;2023-02-13T04:52:52;100414.66;;;2.60;100.00
53340;BME280;46212;50.258;19.062;2023-02-13T04:55:18;100421.34;;;2.63;100.00
53340;BME280;46212;50.258;19.062;2023-02-13T04:57:43;100411.84;;;2.38;100.00
53340;BME280;46212;50.258;19.062;2023-02-13T05:00:10;100419.84;;;2.65;100.00
53340;BME280;46212;50.258;19.062;2023-02-13T05:02:36;100421.84;;;2.68;100.00
53340;BME280;46212;50.258;19.062;2023-02-13T05:05:01;100418.16;;;2.61;100.00
53340;BME280;46212;50.258;19.062;2023-02-13T05:07:27;100410.06;;;2.64;100.00
53340;BME280;46212;50.258;19.062;2023-02-13T05:09:52;100424.66;;;2.72;100.00
53340;BME280;46212;50.258;19.062;2023-02-13T05:12:17;100416.47;;;2.72;100.00
53340;BME280;46212;50.258;19.062;2023-02-13T05:14:43;100410.78;;;2.61;100.00
53340;BME280;46212;50.258;19.062;2023-02-13T05:17:08;100415.19;;;2.85;100.00
53340;BME280;46212;50.258;19.062;2023-02-13T05:19:34;100414.22;;;2.97;100.00
53340;BME280;46212;50.258;19.062;2023-02-13T05:21:59;100415.53;;;2.84;100.00
53340;BME280;46212;50.258;19.062;2023-02-13T05:24:43;100399.16;;;2.45;100.00
53340;BME280;46212;50.258;19.062;2023-02-13T05:27:08;100407.69;;;2.44;100.00
53340;BME280;46212;50.258;19.062;2023-02-13T05:29:34;100391.53;;;2.35;100.00
53340;BME280;46212;50.258;19.062;2023-02-13T05:31:59;100407.63;;;2.79;100.00
53340;BME280;46212;50.258;19.062;2023-02-13T05:34:26;100423.56;;;2.77;100.00
53340;BME280;46212;50.258;19.062;2023-02-13T05:36:52;100426.19;;;2.54;100.00
53340;BME280;46212;50.258;19.062;2023-02-13T05:39:18;100412.38;;;2.62;100.00
53340;BME280;46212;50.258;19.062;2023-02-13T05:41:45;100428.81;;;2.85;100.00
53340;BME280;46212;50.258;19.062;2023-02-13T05:44:11;100423.41;;;2.69;100.00
53340;BME280;46212;50.258;19.062;2023-02-13T05:46:38;100413.94;;;2.63;100.00
53340;BME280;46212;50.258;19.062;2023-02-13T05:49:04;100421.50;;;2.35;100.00
53340;BME280;46212;50.258;19.062;2023-02-13T05:51:30;100413.28;;;2.51;100.00
53340;BME280;46212;50.258;19.062;2023-02-13T05:53:56;100419.19;;;2.53;100.00
53340;BME280;46212;50.258;19.062;2023-02-13T05:56:21;100415.97;;;2.47;100.00
53340;BME280;46212;50.258;19.062;2023-02-13T05:58:50;100409.25;;;2.45;100.00
53340;BME280;46212;50.258;19.062;2023-02-13T06:01:17;100408.53;;;2.48;100.00
53340;BME280;46212;50.258;19.062;2023-02-13T06:03:42;100417.69;;;2.75;100.00
53340;BME280;46212;50.258;19.062;2023-02-13T06:06:07;100417.38;;;2.60;100.00
53340;BME280;46212;50.258;19.062;2023-02-13T06:08:33;100420.47;;;2.59;100.00
53340;BME280;46212;50.258;19.062;2023-02-13T06:10:58;100408.22;;;2.68;100.00
53340;BME280;46212;50.258;19.062;2023-02-13T06:13:24;100421.69;;;2.61;100.00
53340;BME280;46212;50.258;19.062;2023-02-13T06:15:49;100426.28;;;2.57;100.00
53340;BME280;46212;50.258;19.062;2023-02-13T06:18:15;100417.81;;;2.43;100.00
53340;BME280;46212;50.258;19.062;2023-02-13T06:20:41;100433.97;;;2.71;100.00
53340;BME280;46212;50.258;19.062;2023-02-13T06:23:06;100437.91;;;2.74;100.00
53340;BME280;46212;50.258;19.062;2023-02-13T06:25:34;100436.34;;;2.73;100.00
53340;BME280;46212;50.258;19.062;2023-02-13T06:28:00;100433.63;;;2.73;100.00
53340;BME280;46212;50.258;19.062;2023-02-13T06:30:25;100431.25;;;2.71;100.00
53340;BME280;46212;50.258;19.062;2023-02-13T06:32:51;100433.91;;;2.87;100.00
53340;BME280;46212;50.258;19.062;2023-02-13T06:35:16;100447.91;;;2.66;100.00
53340;BME280;46212;50.258;19.062;2023-02-13T06:37:42;100447.25;;;2.53;100.00
53340;BME280;46212;50.258;19.062;2023-02-13T06:40:09;100414.59;;;2.38;100.00
53340;BME280;46212;50.258;19.062;2023-02-13T06:42:34;100443.94;;;2.63;100.00
53340;BME280;46212;50.258;19.062;2023-02-13T06:45:00;100433.09;;;2.48;100.00
53340;BME280;46212;50.258;19.062;2023-02-13T06:47:26;100436.84;;;2.59;100.00
53340;BME280;46212;50.258;19.062;2023-02-13T06:49:51;100440.84;;;2.46;100.00
53340;BME280;46212;50.258;19.062;2023-02-13T06:52:17;100441.00;;;2.53;100.00
53340;BME280;46212;50.258;19.062;2023-02-13T06:54:42;100439.13;;;2.57;100.00
53340;BME280;46212;50.258;19.062;2023-02-13T06:57:07;100437.31;;;2.45;100.00
53340;BME280;46212;50.258;19.062;2023-02-13T06:59:33;100439.78;;;2.69;100.00
53340;BME280;46212;50.258;19.062;2023-02-13T07:01:58;100442.56;;;2.73;100.00
53340;BME280;46212;50.258;19.062;2023-02-13T07:04:24;100439.94;;;2.96;100.00
53340;BME280;46212;50.258;19.062;2023-02-13T07:06:49;100445.81;;;3.17;100.00
53340;BME280;46212;50.258;19.062;2023-02-13T07:09:15;100447.19;;;3.07;100.00
53340;BME280;46212;50.258;19.062;2023-02-13T07:11:41;100436.91;;;3.01;100.00
53340;BME280;46212;50.258;19.062;2023-02-13T07:14:07;100454.66;;;3.10;100.00
53340;BME280;46212;50.258;19.062;2023-02-13T07:16:33;100444.31;;;3.00;100.00
53340;BME280;46212;50.258;19.062;2023-02-13T07:18:58;100436.13;;;3.00;100.00
53340;BME280;46212;50.258;19.062;2023-02-13T07:21:24;100440.56;;;3.08;100.00
53340;BME280;46212;50.258;19.062;2023-02-13T07:23:50;100439.63;;;3.20;100.00
53340;BME280;46212;50.258;19.062;2023-02-13T07:26:15;100428.63;;;3.16;100.00
53340;BME280;46212;50.258;19.062;2023-02-13T07:28:41;100442.34;;;3.20;100.00
53340;BME280;46212;50.258;19.062;2023-02-13T07:31:06;100440.28;;;3.36;100.00
53340;BME280;46212;50.258;19.062;2023-02-13T07:33:33;100444.03;;;3.47;100.00
53340;BME280;46212;50.258;19.062;2023-02-13T07:35:59;100441.03;;;3.33;100.00
53340;BME280;46212;50.258;19.062;2023-02-13T07:38:30;100438.63;;;3.51;100.00
53340;BME280;46212;50.258;19.062;2023-02-13T07:41:00;100429.75;;;3.35;100.00
53340;BME280;46212;50.258;19.062;2023-02-13T07:43:26;100440.19;;;3.74;100.00
53340;BME280;46212;50.258;19.062;2023-02-13T07:45:52;100425.69;;;3.70;99.64
53340;BME280;46212;50.258;19.062;2023-02-13T07:48:23;100447.28;;;3.79;98.34
53340;BME280;46212;50.258;19.062;2023-02-13T07:50:51;100440.09;;;3.94;98.00
53340;BME280;46212;50.258;19.062;2023-02-13T07:53:17;100430.03;;;3.98;97.16
53340;BME280;46212;50.258;19.062;2023-02-13T07:55:42;100428.75;;;3.92;97.33
53340;BME280;46212;50.258;19.062;2023-02-13T07:58:07;100426.69;;;3.85;96.96
53340;BME280;46212;50.258;19.062;2023-02-13T08:00:33;100425.03;;;4.03;97.06
53340;BME280;46212;50.258;19.062;2023-02-13T08:02:59;100421.81;;;3.98;97.00
53340;BME280;46212;50.258;19.062;2023-02-13T08:05:25;100411.75;;;4.02;96.26
53340;BME280;46212;50.258;19.062;2023-02-13T08:07:51;100432.25;;;4.15;95.86
53340;BME280;46212;50.258;19.062;2023-02-13T08:10:17;100423.94;;;4.34;96.21
53340;BME280;46212;50.258;19.062;2023-02-13T08:13:01;100429.88;;;4.40;95.61
53340;BME280;46212;50.258;19.062;2023-02-13T08:15:26;100423.53;;;4.36;95.48
53340;BME280;46212;50.258;19.062;2023-02-13T08:17:52;100421.28;;;4.41;94.95
53340;BME280;46212;50.258;19.062;2023-02-13T08:20:17;100437.69;;;4.41;94.59
53340;BME280;46212;50.258;19.062;2023-02-13T08:22:43;100445.72;;;4.57;94.54
53340;BME280;46212;50.258;19.062;2023-02-13T08:25:08;100442.09;;;4.49;94.16
53340;BME280;46212;50.258;19.062;2023-02-13T08:27:34;100443.38;;;4.55;94.68
53340;BME280;46212;50.258;19.062;2023-02-13T08:29:59;100438.16;;;4.76;94.20
53340;BME280;46212;50.258;19.062;2023-02-13T08:32:27;100423.22;;;4.70;93.57
53340;BME280;46212;50.258;19.062;2023-02-13T08:34:53;100427.13;;;4.69;93.62
53340;BME280;46212;50.258;19.062;2023-02-13T08:37:18;100442.69;;;4.95;93.50
53340;BME280;46212;50.258;19.062;2023-02-13T08:39:43;100439.28;;;4.42;94.69
53340;BME280;46212;50.258;19.062;2023-02-13T08:42:09;100447.47;;;4.42;96.07
53340;BME280;46212;50.258;19.062;2023-02-13T08:44:34;100450.44;;;4.60;96.28
53340;BME280;46212;50.258;19.062;2023-02-13T08:47:01;100440.44;;;5.04;95.10
53340;BME280;46212;50.258;19.062;2023-02-13T08:49:30;100443.97;;;5.05;94.14
53340;BME280;46212;50.258;19.062;2023-02-13T08:51:56;100425.31;;;5.17;94.42
53340;BME280;46212;50.258;19.062;2023-02-13T08:54:21;100434.69;;;5.13;94.36
53340;BME280;46212;50.258;19.062;2023-02-13T08:56:47;100438.03;;;5.36;94.16
53340;BME280;46212;50.258;19.062;2023-02-13T08:59:12;100442.00;;;5.39;92.80
53340;BME280;46212;50.258;19.062;2023-02-13T09:01:38;100436.75;;;5.23;92.92
53340;BME280;46212;50.258;19.062;2023-02-13T09:04:03;100429.88;;;5.03;93.41
53340;BME280;46212;50.258;19.062;2023-02-13T09:06:29;100427.34;;;5.24;92.99
53340;BME280;46212;50.258;19.062;2023-02-13T09:08:54;100421.09;;;5.23;92.45
53340;BME280;46212;50.258;19.062;2023-02-13T09:11:20;100424.81;;;5.42;93.00
53340;BME280;46212;50.258;19.062;2023-02-13T09:13:48;100423.59;;;5.39;92.98
53340;BME280;46212;50.258;19.062;2023-02-13T09:16:14;100435.84;;;5.12;93.88
53340;BME280;46212;50.258;19.062;2023-02-13T09:18:40;100437.09;;;5.58;93.76
53340;BME280;46212;50.258;19.062;2023-02-13T09:21:09;100423.06;;;5.26;94.24
53340;BME280;46212;50.258;19.062;2023-02-13T09:23:37;100442.75;;;5.35;94.87
53340;BME280;46212;50.258;19.062;2023-02-13T09:26:06;100447.09;;;5.40;94.69
53340;BME280;46212;50.258;19.062;2023-02-13T09:28:33;100448.06;;;5.21;93.92
53340;BME280;46212;50.258;19.062;2023-02-13T09:31:04;100458.25;;;5.21;94.06
53340;BME280;46212;50.258;19.062;2023-02-13T09:33:30;100450.31;;;5.12;94.23
53340;BME280;46212;50.258;19.062;2023-02-13T09:35:55;100456.22;;;5.14;94.78
53340;BME280;46212;50.258;19.062;2023-02-13T09:38:21;100448.81;;;5.18;94.80
53340;BME280;46212;50.258;19.062;2023-02-13T09:40:52;100448.75;;;5.11;94.80
53340;BME280;46212;50.258;19.062;2023-02-13T09:43:28;100453.03;;;5.09;95.89
53340;BME280;46212;50.258;19.062;2023-02-13T09:45:57;100441.38;;;5.56;94.85
53340;BME280;46212;50.258;19.062;2023-02-13T09:48:29;100450.47;;;5.63;92.76
53340;BME280;46212;50.258;19.062;2023-02-13T09:50:57;100450.16;;;5.31;94.66
53340;BME280;46212;50.258;19.062;2023-02-13T09:53:23;100437.72;;;5.41;94.46
53340;BME280;46212;50.258;19.062;2023-02-13T09:58:39;100435.03;;;5.45;93.79
53340;BME280;46212;50.258;19.062;2023-02-13T10:03:50;100434.84;;;5.67;94.42
53340;BME280;46212;50.258;19.062;2023-02-13T10:06:30;100438.81;;;5.73;93.76
53340;BME280;46212;50.258;19.062;2023-02-13T10:09:13;100419.00;;;5.50;94.14
53340;BME280;46212;50.258;19.062;2023-02-13T10:14:47;100410.00;;;5.94;93.17
53340;BME280;46212;50.258;19.062;2023-02-13T10:17:28;100423.97;;;5.81;93.00
53340;BME280;46212;50.258;19.062;2023-02-13T10:20:03;100418.19;;;5.86;93.21
53340;BME280;46212;50.258;19.062;2023-02-13T10:22:34;100426.84;;;5.48;93.22
53340;BME280;46212;50.258;19.062;2023-02-13T10:25:07;100404.44;;;5.43;95.16
53340;BME280;46212;50.258;19.062;2023-02-13T10:27:39;100418.09;;;5.35;96.06
53340;BME280;46212;50.258;19.062;2023-02-13T10:30:20;100401.94;;;5.67;96.78
53340;BME280;46212;50.258;19.062;2023-02-13T10:33:05;100412.22;;;5.81;94.31
53340;BME280;46212;50.258;19.062;2023-02-13T10:38:29;100399.56;;;5.66;94.85
53340;BME280;46212;50.258;19.062;2023-02-13T10:41:18;100394.22;;;5.36;95.00
53340;BME280;46212;50.258;19.062;2023-02-13T10:51:44;100387.66;;;5.04;96.27
53340;BME280;46212;50.258;19.062;2023-02-13T10:57:15;100379.94;;;5.16;97.33
53340;BME280;46212;50.258;19.062;2023-02-13T10:59:54;100372.59;;;4.87;97.32
53340;BME280;46212;50.258;19.062;2023-02-13T11:02:27;100373.19;;;5.07;97.72
53340;BME280;46212;50.258;19.062;2023-02-13T11:04:58;100352.06;;;4.70;98.19
53340;BME280;46212;50.258;19.062;2023-02-13T11:07:25;100378.28;;;5.08;98.52
53340;BME280;46212;50.258;19.062;2023-02-13T11:09:54;100378.97;;;4.98;98.43
53340;BME280;46212;50.258;19.062;2023-02-13T11:12:25;100359.16;;;5.12;98.33
53340;BME280;46212;50.258;19.062;2023-02-13T11:15:04;100371.03;;;5.26;97.93
53340;BME280;46212;50.258;19.062;2023-02-13T11:17:40;100365.06;;;5.17;97.28
53340;BME280;46212;50.258;19.062;2023-02-13T11:22:56;100358.00;;;4.76;99.17
53340;BME280;46212;50.258;19.062;2023-02-13T11:25:37;100348.47;;;5.00;99.04
53340;BME280;46212;50.258;19.062;2023-02-13T11:28:17;100353.69;;;5.12;98.60
53340;BME280;46212;50.258;19.062;2023-02-13T11:30:45;100359.03;;;4.98;99.36
53340;BME280;46212;50.258;19.062;2023-02-13T11:35:40;100342.84;;;5.22;97.56
53340;BME280;46212;50.258;19.062;2023-02-13T11:40:41;100337.94;;;5.02;99.12
53340;BME280;46212;50.258;19.062;2023-02-13T11:46:46;100325.97;;;5.17;98.58
53340;BME280;46212;50.258;19.062;2023-02-13T11:49:21;100323.69;;;5.26;98.39
53340;BME280;46212;50.258;19.062;2023-02-13T11:51:49;100344.09;;;5.32;98.04
53340;BME280;46212;50.258;19.062;2023-02-13T11:54:40;100336.81;;;5.06;99.26
53340;BME280;46212;50.258;19.062;2023-02-13T11:57:29;100328.63;;;5.10;99.54
53340;BME280;46212;50.258;19.062;2023-02-13T11:59:55;100331.66;;;5.42;99.28
53340;BME280;46212;50.258;19.062;2023-02-13T12:04:55;100320.66;;;5.38;99.51
53340;BME280;46212;50.258;19.062;2023-02-13T12:07:36;100336.94;;;5.64;98.78
53340;BME280;46212;50.258;19.062;2023-02-13T12:12:45;100329.06;;;5.15;99.75
53340;BME280;46212;50.258;19.062;2023-02-13T12:15:37;100334.03;;;5.03;100.00
53340;BME280;46212;50.258;19.062;2023-02-13T12:56:06;100309.31;;;5.40;100.00
53340;BME280;46212;50.258;19.062;2023-02-13T13:04:25;100283.94;;;5.50;99.57
53340;BME280;46212;50.258;19.062;2023-02-13T13:12:44;100307.19;;;5.66;99.59
53340;BME280;46212;50.258;19.062;2023-02-13T13:26:47;100315.75;;;5.58;98.12
53340;BME280;46212;50.258;19.062;2023-02-13T13:29:42;100307.09;;;5.56;98.90
53340;BME280;46212;50.258;19.062;2023-02-13T13:32:15;100303.59;;;5.59;99.48
53340;BME280;46212;50.258;19.062;2023-02-13T13:34:42;100304.19;;;5.85;99.15
53340;BME280;46212;50.258;19.062;2023-02-13T13:37:43;100310.00;;;5.77;98.63
53340;BME280;46212;50.258;19.062;2023-02-13T13:47:04;100308.81;;;6.47;94.44
53340;BME280;46212;50.258;19.062;2023-02-13T13:49:33;100309.09;;;6.24;93.23
53340;BME280;46212;50.258;19.062;2023-02-13T13:52:35;100308.50;;;6.83;91.86
53340;BME280;46212;50.258;19.062;2023-02-13T13:55:04;100301.00;;;6.59;92.55
53340;BME280;46212;50.258;19.062;2023-02-13T14:00:02;100314.56;;;6.17;91.78
53340;BME280;46212;50.258;19.062;2023-02-13T14:03:10;100315.69;;;6.12;91.85
53340;BME280;46212;50.258;19.062;2023-02-13T14:05:57;100307.78;;;5.97;93.22
53340;BME280;46212;50.258;19.062;2023-02-13T14:11:39;100316.94;;;6.29;90.69
53340;BME280;46212;50.258;19.062;2023-02-13T14:17:00;100307.53;;;6.26;90.00
53340;BME280;46212;50.258;19.062;2023-02-13T14:19:33;100305.19;;;6.28;88.98
53340;BME280;46212;50.258;19.062;2023-02-13T14:24:54;100315.91;;;5.82;90.56
53340;BME280;46212;50.258;19.062;2023-02-13T14:27:29;100302.19;;;5.82;88.43
53340;BME280;46212;50.258;19.062;2023-02-13T14:29:56;100293.13;;;5.75;88.94
53340;BME280;46212;50.258;19.062;2023-02-13T14:32:30;100300.16;;;5.72;88.91
53340;BME280;46212;50.258;19.062;2023-02-13T14:35:00;100307.66;;;5.79;89.01
53340;BME280;46212;50.258;19.062;2023-02-13T14:37:37;100293.75;;;5.51;90.31
53340;BME280;46212;50.258;19.062;2023-02-13T14:40:45;100293.19;;;5.27;91.68
53340;BME280;46212;50.258;19.062;2023-02-13T14:43:27;100296.41;;;5.40;92.17
53340;BME280;46212;50.258;19.062;2023-02-13T14:48:49;100294.78;;;5.32;91.19
53340;BME280;46212;50.258;19.062;2023-02-13T14:51:46;100295.69;;;5.47;91.60
53340;BME280;46212;50.258;19.062;2023-02-13T14:54:31;100302.28;;;5.39;91.70
53340;BME280;46212;50.258;19.062;2023-02-13T14:57:17;100294.69;;;5.72;89.97
53340;BME280;46212;50.258;19.062;2023-02-13T14:59:49;100288.69;;;5.56;89.99
53340;BME280;46212;50.258;19.062;2023-02-13T15:02:24;100285.66;;;5.68;89.33
53340;BME280;46212;50.258;19.062;2023-02-13T15:04:59;100289.19;;;5.72;88.77
53340;BME280;46212;50.258;19.062;2023-02-13T15:07:29;100280.94;;;5.65;88.30
53340;BME280;46212;50.258;19.062;2023-02-13T15:10:01;100284.06;;;5.64;89.31
53340;BME280;46212;50.258;19.062;2023-02-13T15:12:34;100287.97;;;5.63;88.19
53340;BME280;46212;50.258;19.062;2023-02-13T15:15:00;100292.59;;;5.52;88.67
53340;BME280;46212;50.258;19.062;2023-02-13T15:17:29;100274.50;;;5.40;88.69
53340;BME280;46212;50.258;19.062;2023-02-13T15:20:19;100283.91;;;5.43;88.53
53340;BME280;46212;50.258;19.062;2023-02-13T15:22:47;100269.38;;;5.35;89.45
53340;BME280;46212;50.258;19.062;2023-02-13T15:25:31;100279.84;;;5.22;88.85
53340;BME280;46212;50.258;19.062;2023-02-13T15:27:58;100287.50;;;5.03;89.04
53340;BME280;46212;50.258;19.062;2023-02-13T15:33:32;100269.69;;;5.23;86.90
53340;BME280;46212;50.258;19.062;2023-02-13T15:36:03;100262.59;;;5.18;86.73
53340;BME280;46212;50.258;19.062;2023-02-13T15:38:34;100279.38;;;5.13;86.90
53340;BME280;46212;50.258;19.062;2023-02-13T15:41:08;100287.78;;;4.91;87.61
53340;BME280;46212;50.258;19.062;2023-02-13T15:43:56;100283.25;;;4.68;88.39